createdAt,value
2017-09-23T00:01:43.624Z,12.90
2017-09-23T00:04:11.216Z,12.90
2017-09-23T00:06:38.780Z,12.90
2017-09-23T00:09:06.283Z,12.80
2017-09-23T00:11:34.711Z,12.80
2017-09-23T00:14:02.214Z,12.70
2017-09-23T00:16:29.739Z,12.70
2017-09-23T00:18:57.248Z,12.70
2017-09-23T00:21:24.775Z,12.60
2017-09-23T00:23:53.175Z,12.60
2017-09-23T00:26:20.783Z,12.50
2017-09-23T00:28:48.297Z,12.50
2017-09-23T00:31:15.811Z,12.50
2017-09-23T00:33:43.319Z,12.50
2017-09-23T00:36:10.843Z,12.30
2017-09-23T00:38:38.371Z,12.20
2017-09-23T00:41:06.500Z,12.20
2017-09-23T00:43:34.719Z,12.30
2017-09-23T00:46:02.247Z,12.30
2017-09-23T00:48:29.952Z,12.30
2017-09-23T00:50:57.484Z,12.20
2017-09-23T00:53:25.758Z,12.30
2017-09-23T00:55:54.046Z,12.30
2017-09-23T00:58:21.543Z,12.30
2017-09-23T01:00:49.187Z,12.30
2017-09-23T01:03:16.711Z,12.20
2017-09-23T01:05:45.979Z,12.10
2017-09-23T01:08:13.501Z,12.10
2017-09-23T01:10:41.119Z,12.00
2017-09-23T01:13:09.408Z,12.00
2017-09-23T01:15:38.499Z,12.00
2017-09-23T01:18:06.778Z,12.00
2017-09-23T01:20:35.055Z,12.00
2017-09-23T01:23:03.344Z,12.00
2017-09-23T01:25:30.860Z,12.00
2017-09-23T01:27:58.468Z,12.00
2017-09-23T01:30:25.975Z,12.00
2017-09-23T01:32:53.502Z,12.10
2017-09-23T01:35:21.011Z,12.10
2017-09-23T01:37:49.307Z,12.00
2017-09-23T01:40:16.810Z,12.00
2017-09-23T01:42:44.311Z,12.00
2017-09-23T01:45:12.591Z,11.90
2017-09-23T01:47:40.860Z,11.90
2017-09-23T01:50:09.259Z,11.80
2017-09-23T01:52:36.763Z,11.80
2017-09-23T01:55:04.371Z,11.90
2017-09-23T01:57:31.884Z,11.90
2017-09-23T01:59:59.407Z,11.90
2017-09-23T02:02:26.911Z,11.90
2017-09-23T02:04:54.431Z,11.80
2017-09-23T02:07:21.934Z,11.80
2017-09-23T02:09:49.455Z,11.80
2017-09-23T02:12:16.959Z,11.80
2017-09-23T02:14:45.247Z,11.70
2017-09-23T02:17:13.530Z,11.70
2017-09-23T02:19:41.045Z,11.70
2017-09-23T02:22:08.550Z,11.80
2017-09-23T02:24:36.806Z,11.70
2017-09-23T02:27:05.076Z,11.80
2017-09-23T02:29:33.362Z,11.80
2017-09-23T02:32:01.643Z,11.70
2017-09-23T02:34:29.209Z,11.70
2017-09-23T02:36:56.715Z,11.80
2017-09-23T02:39:24.319Z,11.80
2017-09-23T02:41:52.702Z,11.80
2017-09-23T02:44:20.208Z,11.80
2017-09-23T02:46:47.731Z,11.90
2017-09-23T02:49:15.234Z,11.90
2017-09-23T02:51:43.368Z,11.90
2017-09-23T02:54:10.884Z,11.80
2017-09-23T02:56:39.179Z,11.70
2017-09-23T02:59:06.683Z,11.70
2017-09-23T03:01:34.306Z,11.60
2017-09-23T03:04:01.811Z,11.70
2017-09-23T03:06:29.437Z,11.70
2017-09-23T03:08:56.947Z,11.70
2017-09-23T03:11:24.468Z,11.70
2017-09-23T03:13:51.994Z,11.70
2017-09-23T03:16:19.515Z,11.70
2017-09-23T03:18:47.020Z,11.70
2017-09-23T03:21:14.539Z,11.60
2017-09-23T03:23:42.923Z,11.70
2017-09-23T03:26:11.228Z,11.70
2017-09-23T03:28:38.735Z,11.70
2017-09-23T03:31:06.264Z,11.70
2017-09-23T03:33:33.763Z,11.60
2017-09-23T03:36:01.287Z,11.60
2017-09-23T03:38:28.787Z,11.60
2017-09-23T03:40:57.060Z,11.50
2017-09-23T03:43:25.347Z,11.60
2017-09-23T03:45:53.619Z,11.60
2017-09-23T03:48:21.907Z,11.50
2017-09-23T03:50:49.412Z,11.50
2017-09-23T03:53:17.035Z,11.50
2017-09-23T03:55:44.675Z,11.50
2017-09-23T03:58:13.055Z,11.40
2017-09-23T04:00:41.440Z,11.40
2017-09-23T04:03:09.727Z,11.30
2017-09-23T04:05:37.287Z,11.30
2017-09-23T04:08:04.887Z,11.30
2017-09-23T04:10:33.110Z,11.30
2017-09-23T04:13:01.395Z,11.30
2017-09-23T04:15:28.899Z,11.30
2017-09-23T04:17:57.291Z,11.40
2017-09-23T04:20:24.967Z,11.40
2017-09-23T04:22:53.247Z,11.40
2017-09-23T04:25:21.540Z,11.40
2017-09-23T04:27:49.047Z,11.40
2017-09-23T04:30:16.579Z,11.30
2017-09-23T04:32:44.120Z,11.30
2017-09-23T04:35:11.678Z,11.30
2017-09-23T04:37:39.183Z,11.40
2017-09-23T04:40:06.708Z,11.30
2017-09-23T04:42:34.255Z,11.10
2017-09-23T04:45:01.779Z,11.10
2017-09-23T04:47:29.283Z,11.00
2017-09-23T04:49:56.810Z,10.90
2017-09-23T04:52:25.191Z,11.00
2017-09-23T04:54:53.587Z,11.10
2017-09-23T04:57:21.099Z,11.10
2017-09-23T04:59:48.622Z,11.20
2017-09-23T05:02:16.159Z,11.20
2017-09-23T05:04:43.719Z,11.20
2017-09-23T05:07:11.620Z,11.30
2017-09-23T05:09:39.140Z,11.30
2017-09-23T05:12:06.651Z,11.30
2017-09-23T05:14:34.177Z,11.10
2017-09-23T05:17:01.683Z,11.00
2017-09-23T05:19:29.207Z,11.00
2017-09-23T05:21:56.715Z,11.10
2017-09-23T05:24:24.247Z,11.00
2017-09-23T05:26:51.755Z,11.10
2017-09-23T05:29:19.317Z,11.00
2017-09-23T05:31:46.819Z,11.10
2017-09-23T05:34:14.342Z,11.10
2017-09-23T05:36:41.868Z,11.10
2017-09-23T05:39:10.139Z,11.20
2017-09-23T05:41:38.423Z,11.20
2017-09-23T05:44:06.695Z,11.20
2017-09-23T05:46:34.983Z,11.30
2017-09-23T05:49:02.487Z,11.30
2017-09-23T05:51:30.007Z,11.20
2017-09-23T05:53:57.611Z,11.30
2017-09-23T05:56:25.136Z,11.40
2017-09-23T05:58:52.680Z,11.40
2017-09-23T06:01:20.203Z,11.50
2017-09-23T06:03:47.711Z,11.50
2017-09-23T06:06:15.234Z,11.60
2017-09-23T06:08:43.507Z,11.60
2017-09-23T06:11:11.796Z,11.70
2017-09-23T06:13:39.307Z,11.70
2017-09-23T06:16:07.594Z,11.70
2017-09-23T06:18:35.103Z,11.80
2017-09-23T06:21:02.616Z,11.70
2017-09-23T06:23:30.140Z,11.80
2017-09-23T06:25:57.647Z,11.70
2017-09-23T06:28:25.939Z,11.70
2017-09-23T06:30:54.294Z,11.60
2017-09-23T06:33:21.823Z,11.70
2017-09-23T06:35:49.326Z,11.70
2017-09-23T06:38:17.744Z,11.70
2017-09-23T06:40:46.016Z,11.70
2017-09-23T06:43:13.539Z,11.90
2017-09-23T06:45:41.811Z,12.10
2017-09-23T06:48:10.162Z,12.10
2017-09-23T06:50:37.667Z,12.10
2017-09-23T06:53:06.059Z,12.20
2017-09-23T06:55:33.563Z,12.30
2017-09-23T06:58:01.703Z,12.40
2017-09-23T07:00:29.240Z,12.50
2017-09-23T07:02:56.767Z,12.50
2017-09-23T07:05:25.044Z,12.70
2017-09-23T07:07:53.335Z,12.70
2017-09-23T07:10:20.843Z,12.70
2017-09-23T07:12:48.372Z,12.80
2017-09-23T07:15:15.891Z,12.80
2017-09-23T07:17:44.331Z,13.00
2017-09-23T07:20:11.835Z,13.00
2017-09-23T07:22:40.127Z,13.20
2017-09-23T07:25:07.644Z,13.20
2017-09-23T07:27:35.166Z,13.30
2017-09-23T07:30:03.535Z,13.40
2017-09-23T07:32:31.063Z,13.40
2017-09-23T07:34:59.339Z,13.60
2017-09-23T07:37:28.487Z,13.70
2017-09-23T07:39:55.992Z,13.60
2017-09-23T07:42:24.284Z,13.70
2017-09-23T07:44:51.794Z,13.70
2017-09-23T07:47:19.326Z,13.80
2017-09-23T07:49:46.834Z,13.90
2017-09-23T07:52:15.130Z,14.10
2017-09-23T07:54:42.651Z,14.00
2017-09-23T07:57:10.159Z,14.10
2017-09-23T07:59:37.684Z,14.00
2017-09-23T08:02:05.969Z,14.10
2017-09-23T08:04:34.254Z,14.20
2017-09-23T08:07:02.539Z,14.20
2017-09-23T08:09:30.068Z,14.20
2017-09-23T08:11:58.342Z,14.40
2017-09-23T08:14:25.862Z,14.40
2017-09-23T08:16:53.391Z,14.50
2017-09-23T08:19:20.914Z,14.60
2017-09-23T08:21:48.646Z,14.70
2017-09-23T08:24:16.167Z,14.80
2017-09-23T08:26:43.728Z,14.90
2017-09-23T08:29:11.279Z,15.00
2017-09-23T08:31:38.787Z,15.10
2017-09-23T08:34:06.296Z,15.20
2017-09-23T08:36:33.845Z,15.40
2017-09-23T08:39:02.115Z,15.60
2017-09-23T08:41:31.078Z,15.50
2017-09-23T08:43:58.611Z,15.50
2017-09-23T08:46:26.132Z,15.50
2017-09-23T08:48:54.398Z,15.50
2017-09-23T08:51:22.687Z,15.50
2017-09-23T08:53:50.199Z,15.50
2017-09-23T08:56:17.719Z,15.50
2017-09-23T08:58:45.226Z,15.70
2017-09-23T09:01:12.746Z,15.80
2017-09-23T09:03:40.526Z,15.90
2017-09-23T09:06:08.151Z,16.00
2017-09-23T09:08:36.151Z,16.10
2017-09-23T09:11:03.676Z,16.20
2017-09-23T09:13:31.192Z,16.30
2017-09-23T09:15:58.804Z,16.40
2017-09-23T09:18:26.351Z,16.50
2017-09-23T09:20:53.895Z,16.50
2017-09-23T09:23:22.166Z,16.70
2017-09-23T09:25:50.566Z,16.80
2017-09-23T09:28:18.092Z,16.80
2017-09-23T09:30:46.402Z,16.90
2017-09-23T09:33:13.924Z,16.90
2017-09-23T09:35:41.519Z,17.00
2017-09-23T09:38:09.043Z,17.00
2017-09-23T09:40:36.551Z,17.00
2017-09-23T09:43:04.072Z,17.10
2017-09-23T09:45:32.523Z,17.10
2017-09-23T09:48:00.048Z,17.10
2017-09-23T09:50:27.559Z,17.10
2017-09-23T09:52:55.102Z,17.20
2017-09-23T09:55:22.606Z,17.20
2017-09-23T09:57:50.131Z,17.30
2017-09-23T10:00:18.443Z,17.40
2017-09-23T10:02:45.967Z,17.50
2017-09-23T10:05:13.566Z,17.60
2017-09-23T10:07:41.120Z,17.70
2017-09-23T10:10:08.628Z,17.70
2017-09-23T10:12:47.255Z,17.80
2017-09-23T10:15:14.763Z,17.90
2017-09-23T10:17:42.291Z,18.00
2017-09-23T10:20:10.584Z,18.10
2017-09-23T10:22:38.106Z,18.10
2017-09-23T10:25:06.414Z,18.20
2017-09-23T10:27:34.703Z,18.40
2017-09-23T10:30:02.215Z,18.30
2017-09-23T10:32:29.743Z,18.50
2017-09-23T10:34:57.275Z,18.70
2017-09-23T10:37:24.802Z,19.00
2017-09-23T10:39:53.078Z,19.30
2017-09-23T10:42:21.371Z,19.50
2017-09-23T10:44:49.642Z,19.40
2017-09-23T10:47:18.035Z,19.30
2017-09-23T10:49:46.291Z,19.30
2017-09-23T10:52:14.590Z,19.20
2017-09-23T10:54:42.152Z,19.20
2017-09-23T10:57:09.666Z,19.20
2017-09-23T10:59:37.955Z,19.10
2017-09-23T11:02:06.227Z,19.00
2017-09-23T11:04:33.750Z,19.00
2017-09-23T11:07:01.258Z,18.90
2017-09-23T11:09:29.560Z,18.70
2017-09-23T11:11:57.136Z,18.60
2017-09-23T11:14:24.742Z,18.60
2017-09-23T11:16:53.016Z,18.60
2017-09-23T11:19:21.321Z,18.70
2017-09-23T11:21:48.826Z,18.70
2017-09-23T11:24:16.438Z,18.70
2017-09-23T11:26:43.946Z,18.80
2017-09-23T11:29:11.480Z,18.80
2017-09-23T11:31:39.074Z,18.80
2017-09-23T11:34:06.599Z,18.90
2017-09-23T11:36:34.126Z,18.90
2017-09-23T11:39:01.647Z,18.90
2017-09-23T11:41:29.162Z,18.90
2017-09-23T11:43:56.706Z,19.00
2017-09-23T11:46:24.262Z,19.00
2017-09-23T11:48:51.822Z,19.00
2017-09-23T11:51:19.347Z,19.00
2017-09-23T11:53:46.939Z,19.10
2017-09-23T11:56:14.466Z,19.10
2017-09-23T11:58:42.058Z,19.10
2017-09-23T12:01:09.579Z,19.10
2017-09-23T12:03:37.176Z,19.10
2017-09-23T12:06:04.696Z,19.20
2017-09-23T12:08:32.309Z,19.30
2017-09-23T12:10:59.839Z,19.30
2017-09-23T12:13:28.110Z,19.20
2017-09-23T12:15:56.399Z,19.10
2017-09-23T12:18:23.916Z,19.10
2017-09-23T12:20:51.440Z,19.00
2017-09-23T12:23:19.371Z,19.00
2017-09-23T12:25:47.658Z,18.90
2017-09-23T12:28:15.169Z,18.90
2017-09-23T12:30:42.694Z,18.90
2017-09-23T12:33:10.243Z,19.00
2017-09-23T12:35:37.771Z,19.00
2017-09-23T12:38:06.042Z,19.10
2017-09-23T12:40:33.575Z,19.10
2017-09-23T12:43:01.078Z,19.10
2017-09-23T12:45:29.371Z,19.20
2017-09-23T12:47:56.887Z,19.20
2017-09-23T12:50:24.483Z,19.10
2017-09-23T12:52:52.041Z,19.10
2017-09-23T12:55:19.646Z,19.10
2017-09-23T12:57:47.172Z,19.20
2017-09-23T13:00:14.679Z,19.20
2017-09-23T13:02:42.276Z,19.30
2017-09-23T13:05:09.850Z,19.30
2017-09-23T13:07:37.450Z,19.30
2017-09-23T13:10:04.958Z,19.30
2017-09-23T13:12:32.567Z,19.40
2017-09-23T13:15:00.176Z,19.40
2017-09-23T13:17:27.701Z,19.40
2017-09-23T13:19:56.171Z,19.40
2017-09-23T13:22:23.780Z,19.40
2017-09-23T13:24:51.291Z,19.40
2017-09-23T13:27:18.834Z,19.50
2017-09-23T13:29:46.342Z,19.60
2017-09-23T13:32:13.902Z,19.60
2017-09-23T13:34:41.430Z,19.60
2017-09-23T13:37:08.944Z,19.70
2017-09-23T13:39:36.507Z,19.80
2017-09-23T13:42:04.018Z,19.80
2017-09-23T13:44:32.328Z,19.90
2017-09-23T13:47:00.058Z,19.80
2017-09-23T13:49:28.347Z,19.70
2017-09-23T13:51:56.550Z,19.70
2017-09-23T13:54:24.079Z,19.70
2017-09-23T13:56:52.365Z,19.80
2017-09-23T13:59:19.887Z,19.80
2017-09-23T14:01:47.464Z,19.80
2017-09-23T14:04:15.751Z,19.70
2017-09-23T14:06:43.330Z,19.70
2017-09-23T14:09:10.855Z,19.70
2017-09-23T14:11:39.127Z,19.70
2017-09-23T14:14:07.419Z,19.80
2017-09-23T14:16:34.919Z,19.80
2017-09-23T14:19:03.158Z,19.80
2017-09-23T14:21:30.654Z,19.90
2017-09-23T14:23:58.174Z,19.90
2017-09-23T14:26:25.728Z,19.90
2017-09-23T14:28:53.305Z,20.00
2017-09-23T14:31:20.802Z,20.00
2017-09-23T14:33:48.297Z,20.00
2017-09-23T14:36:16.838Z,20.00
2017-09-23T14:38:44.334Z,20.00
2017-09-23T14:41:12.686Z,20.10
2017-09-23T14:43:40.192Z,20.10
2017-09-23T14:46:07.710Z,20.10
2017-09-23T14:48:35.219Z,20.20
2017-09-23T14:51:02.755Z,20.20
2017-09-23T14:53:30.319Z,20.20
2017-09-23T14:55:57.874Z,20.30
2017-09-23T14:58:25.379Z,20.20
2017-09-23T15:00:52.894Z,20.20
2017-09-23T15:03:20.400Z,20.20
2017-09-23T15:05:47.928Z,20.20
2017-09-23T15:08:15.463Z,20.30
2017-09-23T15:10:42.996Z,20.30
2017-09-23T15:13:11.308Z,20.40
2017-09-23T15:15:38.911Z,20.30
2017-09-23T15:18:07.145Z,20.40
2017-09-23T15:20:34.651Z,20.40
2017-09-23T15:23:03.672Z,20.90
2017-09-23T15:25:32.020Z,21.00
2017-09-23T15:27:59.534Z,20.90
2017-09-23T15:30:27.034Z,21.10
2017-09-23T15:32:55.599Z,22.20
2017-09-23T15:35:23.113Z,22.20
2017-09-23T15:37:50.670Z,22.90
2017-09-23T15:40:18.936Z,23.90
2017-09-23T15:42:47.311Z,24.00
2017-09-23T15:45:15.580Z,24.00
2017-09-23T15:47:43.870Z,23.90
2017-09-23T15:50:12.158Z,23.50
2017-09-23T15:52:39.679Z,23.50
2017-09-23T15:55:07.291Z,23.20
2017-09-23T15:57:34.806Z,22.70
2017-09-23T16:00:03.069Z,21.90
2017-09-23T16:02:30.593Z,21.90
2017-09-23T16:04:58.139Z,21.60
2017-09-23T16:07:25.656Z,21.30
2017-09-23T16:09:53.159Z,21.00
2017-09-23T16:12:20.654Z,20.90
2017-09-23T16:14:48.171Z,20.70
2017-09-23T16:17:15.674Z,20.50
2017-09-23T16:19:43.195Z,20.30
2017-09-23T16:22:10.695Z,20.20
2017-09-23T16:24:38.223Z,20.10
2017-09-23T16:27:05.726Z,20.00
2017-09-23T16:29:34.079Z,19.80
2017-09-23T16:32:01.582Z,19.80
2017-09-23T16:34:29.239Z,19.70
2017-09-23T16:36:57.147Z,19.50
2017-09-23T16:39:24.671Z,19.40
2017-09-23T16:41:52.183Z,19.30
2017-09-23T16:44:19.711Z,19.20
2017-09-23T16:46:47.215Z,19.20
2017-09-23T16:49:15.556Z,19.10
2017-09-23T16:51:43.079Z,19.10
2017-09-23T16:54:10.598Z,19.00
2017-09-23T16:56:38.207Z,19.00
2017-09-23T16:59:05.768Z,18.90
2017-09-23T17:01:33.294Z,18.80
2017-09-23T17:04:01.567Z,18.50
2017-09-23T17:06:29.967Z,18.40
2017-09-23T17:08:57.478Z,18.40
2017-09-23T17:11:24.999Z,18.40
2017-09-23T17:13:52.503Z,18.20
2017-09-23T17:16:20.031Z,18.20
2017-09-23T17:18:47.554Z,18.00
2017-09-23T17:21:15.071Z,17.90
2017-09-23T17:23:44.074Z,17.60
2017-09-23T17:26:11.594Z,17.60
2017-09-23T17:28:39.103Z,17.50
2017-09-23T17:31:07.387Z,17.40
2017-09-23T17:33:35.678Z,17.30
2017-09-23T17:36:03.203Z,17.30
2017-09-23T17:38:30.707Z,17.20
2017-09-23T17:40:58.353Z,17.10
2017-09-23T17:43:25.858Z,17.00
2017-09-23T17:45:53.387Z,17.00
2017-09-23T17:48:20.931Z,16.90
2017-09-23T17:50:48.459Z,16.90
2017-09-23T17:53:15.967Z,16.80
2017-09-23T17:55:43.505Z,16.80
2017-09-23T17:58:11.011Z,16.80
2017-09-23T18:00:38.554Z,16.70
2017-09-23T18:03:06.054Z,16.70
2017-09-23T18:05:34.328Z,16.60
2017-09-23T18:08:02.618Z,16.60
2017-09-23T18:10:30.891Z,16.50
2017-09-23T18:12:59.283Z,16.30
2017-09-23T18:15:26.791Z,16.30
2017-09-23T18:17:54.307Z,16.30
2017-09-23T18:20:21.815Z,16.20
2017-09-23T18:22:50.848Z,16.00
2017-09-23T18:25:18.363Z,16.00
2017-09-23T18:27:45.888Z,16.00
2017-09-23T18:30:13.394Z,15.90
2017-09-23T18:32:40.914Z,15.90
2017-09-23T18:35:08.971Z,15.90
2017-09-23T18:37:36.503Z,15.80
2017-09-23T18:40:04.072Z,15.80
2017-09-23T18:42:31.634Z,15.70
2017-09-23T18:44:59.143Z,15.70
2017-09-23T18:47:26.662Z,15.70
2017-09-23T18:49:54.167Z,15.60
2017-09-23T18:52:21.679Z,15.60
2017-09-23T18:54:49.221Z,15.50
2017-09-23T18:57:16.736Z,15.40
2017-09-23T18:59:44.263Z,15.40
2017-09-23T19:02:11.767Z,15.30
2017-09-23T19:04:40.060Z,15.10
2017-09-23T19:07:08.347Z,15.00
2017-09-23T19:09:35.901Z,14.90
2017-09-23T19:12:03.407Z,14.90
2017-09-23T19:14:30.939Z,14.90
2017-09-23T19:16:58.446Z,14.90
2017-09-23T19:19:25.966Z,14.90
2017-09-23T19:21:53.475Z,14.90
2017-09-23T19:24:21.764Z,14.80
2017-09-23T19:26:49.343Z,14.80
2017-09-23T19:29:16.873Z,14.80
2017-09-23T19:31:45.143Z,14.80
2017-09-23T19:34:13.422Z,14.90
2017-09-23T19:36:41.710Z,14.90
2017-09-23T19:39:09.220Z,14.80
2017-09-23T19:41:36.740Z,14.90
2017-09-23T19:44:04.288Z,14.90
2017-09-23T19:46:31.825Z,14.90
2017-09-23T19:49:00.099Z,14.90
2017-09-23T19:51:28.400Z,14.90
2017-09-23T19:53:55.958Z,14.90
2017-09-23T19:56:23.479Z,14.90
2017-09-23T19:58:50.986Z,14.90
2017-09-23T20:01:18.535Z,14.90
2017-09-23T20:03:46.048Z,14.80
2017-09-23T20:06:13.651Z,14.80
2017-09-23T20:08:41.158Z,14.80
2017-09-23T20:11:08.664Z,14.70
2017-09-23T20:13:36.185Z,14.70
2017-09-23T20:16:03.686Z,14.70
2017-09-23T20:18:31.208Z,14.70
2017-09-23T20:20:58.802Z,14.70
2017-09-23T20:23:26.330Z,14.70
2017-09-23T20:25:54.598Z,14.70
2017-09-23T20:28:22.195Z,14.70
2017-09-23T20:30:49.703Z,14.70
2017-09-23T20:33:17.310Z,14.60
2017-09-23T20:35:44.815Z,14.60
2017-09-23T20:38:12.338Z,14.60
2017-09-23T20:40:39.922Z,14.50
2017-09-23T20:43:07.443Z,14.50
2017-09-23T20:45:34.959Z,14.50
2017-09-23T20:48:03.256Z,14.40
2017-09-23T20:50:31.542Z,14.40
2017-09-23T20:52:59.838Z,14.30
2017-09-23T20:55:27.348Z,14.30
2017-09-23T20:57:54.874Z,14.30
2017-09-23T21:00:22.386Z,14.30
2017-09-23T21:02:50.670Z,14.20
2017-09-23T21:05:18.942Z,14.20
2017-09-23T21:07:47.334Z,14.10
2017-09-23T21:10:14.834Z,14.00
2017-09-23T21:12:42.338Z,14.10
2017-09-23T21:15:10.626Z,14.10
2017-09-23T21:17:38.133Z,14.10
2017-09-23T21:20:05.659Z,14.10
2017-09-23T21:22:33.204Z,14.10
2017-09-23T21:25:00.730Z,14.10
2017-09-23T21:27:28.233Z,14.10
2017-09-23T21:29:55.758Z,14.10
2017-09-23T21:32:24.054Z,14.00
2017-09-23T21:34:51.725Z,14.00
2017-09-23T21:37:19.230Z,14.00
2017-09-23T21:39:46.836Z,14.00
2017-09-23T21:42:14.390Z,14.00
2017-09-23T21:44:41.920Z,14.00
2017-09-23T21:47:09.426Z,14.00
2017-09-23T21:49:36.942Z,13.90
2017-09-23T21:52:05.219Z,13.80
2017-09-23T21:54:33.515Z,13.90
2017-09-23T21:57:01.018Z,13.80
2017-09-23T21:59:28.635Z,13.90
2017-09-23T22:01:56.158Z,13.80
2017-09-23T22:04:23.663Z,13.80
2017-09-23T22:06:51.187Z,13.80
2017-09-23T22:09:19.458Z,13.80
2017-09-23T22:11:47.751Z,13.70
2017-09-23T22:14:16.738Z,13.70
2017-09-23T22:16:45.027Z,13.60
2017-09-23T22:19:13.523Z,13.60
2017-09-23T22:21:41.050Z,13.50
2017-09-23T22:24:09.319Z,13.40
2017-09-23T22:26:37.616Z,13.40
2017-09-23T22:29:05.179Z,13.30
2017-09-23T22:31:32.752Z,13.30
2017-09-23T22:34:00.253Z,13.30
2017-09-23T22:36:27.856Z,13.30
2017-09-23T22:38:55.375Z,13.30
2017-09-23T22:41:22.900Z,13.20
2017-09-23T22:43:50.407Z,13.20
2017-09-23T22:46:18.778Z,13.20
2017-09-23T22:48:46.877Z,13.20
2017-09-23T22:51:14.551Z,13.20
2017-09-23T22:53:42.058Z,13.20
2017-09-23T22:56:09.658Z,13.20
2017-09-23T22:58:37.162Z,13.30
2017-09-23T23:01:04.770Z,13.20
2017-09-23T23:03:32.271Z,13.20
2017-09-23T23:05:59.774Z,13.20
2017-09-23T23:08:28.171Z,13.20
2017-09-23T23:10:55.675Z,13.20
2017-09-23T23:13:23.287Z,13.10
2017-09-23T23:15:51.511Z,13.00
2017-09-23T23:18:19.040Z,13.00
2017-09-23T23:20:46.546Z,13.00
2017-09-23T23:23:14.066Z,13.10
2017-09-23T23:25:41.569Z,13.10
2017-09-23T23:28:09.858Z,13.10
2017-09-23T23:30:38.130Z,13.00
2017-09-23T23:33:06.524Z,12.90
2017-09-23T23:35:34.038Z,12.90
2017-09-23T23:38:01.566Z,12.90
2017-09-23T23:43:03.106Z,12.90
2017-09-23T23:45:30.615Z,12.80
2017-09-23T23:47:58.139Z,12.80
2017-09-23T23:50:25.656Z,12.80
2017-09-23T23:52:53.930Z,12.80
2017-09-23T23:55:21.451Z,12.80
2017-09-23T23:57:49.782Z,12.70
